CDT,Max TemperatureF,Mean TemperatureF,Min TemperatureF,Max Dew PointF,MeanDew PointF,Min DewpointF,Max Humidity, Mean Humidity, Min Humidity, Max Sea Level PressureIn, Mean Sea Level PressureIn, Min Sea Level PressureIn, Max VisibilityMiles, Mean VisibilityMiles, Min VisibilityMiles, Max Wind SpeedMPH, Mean Wind SpeedMPH, Max Gust SpeedMPH,PrecipitationIn, CloudCover, Events, WindDirDegrees
2013-7-1,78,71,63,67,64,60,100,87,73,29.91,29.85,29.77,10,6,0,14,4,17,0.19,6,Fog-Rain-Thunderstorm,335
2013-7-2,79,72,64,65,64,61,100,77,54,30.03,29.94,29.88,10,7,0,14,5,18,T,6,Fog,206
2013-7-3,82,70,58,66,62,57,100,77,54,30.10,30.06,30.03,10,6,0,10,2,13,0.00,1,Fog,282
2013-7-4,71,68,65,70,67,64,100,92,84,30.11,30.08,30.04,10,6,1,12,4,15,1.47,7,Rain,98
2013-7-5,83,74,65,72,68,63,100,79,58,30.12,30.08,30.04,10,7,1,14,3,18,0.49,7,Rain-Thunderstorm,146
2013-7-6,79,72,65,70,67,63,97,84,71,30.14,30.09,30.03,10,9,1,23,6,32,0.52,6,Rain-Thunderstorm,131
2013-7-7,86,76,65,72,68,64,100,78,55,30.13,30.09,30.04,10,10,6,8,3,14,T,3,Rain,187
2013-7-8,89,78,66,73,69,66,100,78,55,30.17,30.12,30.06,10,5,0,8,2,13,0.00,0,Fog,202
2013-7-9,90,80,70,75,72,68,100,80,59,30.12,30.08,30.01,10,7,0,10,4,21,0.00,0,Fog,209
2013-7-10,90,81,71,77,73,69,94,79,64,30.02,29.96,29.87,10,10,10,13,5,18,0.00,1,Thunderstorm,223
2013-7-11,88,77,66,75,69,59,100,77,54,29.99,29.95,29.93,10,6,0,15,6,21,0.00,2,Fog,13
2013-7-12,83,74,64,62,59,55,87,64,40,30.05,30.01,29.98,10,10,10,15,6,22,0.00,0,,35
2013-7-13,84,72,60,65,61,58,90,67,43,30.04,30.02,29.99,10,10,9,12,4,16,0.00,1,,41
2013-7-14,88,78,67,71,69,65,93,74,55,30.14,30.10,30.03,10,10,9,14,8,20,T,2,,110
2013-7-15,89,81,72,72,70,68,93,73,53,30.27,30.21,30.14,10,10,10,15,6,21,0.00,3,,128
2013-7-16,92,81,69,72,70,68,97,72,47,30.32,30.27,30.23,10,10,10,8,2,14,0.00,0,,101
2013-7-17,94,83,71,74,73,70,100,75,49,30.31,30.24,30.18,10,10,10,12,3,16,0.00,0,Thunderstorm,21
2013-7-18,93,82,71,76,72,66,94,75,56,30.18,30.11,30.06,10,7,0,32,3,55,0.37,2,Fog-Rain-Thunderstorm,352
2013-7-19,89,80,70,74,71,68,97,77,56,30.08,30.02,29.94,10,8,2,10,3,16,0.00,1,,233
2013-7-20,89,81,73,73,71,70,93,74,55,29.98,29.93,29.85,10,10,7,18,6,23,T,1,Rain,229
2013-7-21,88,80,71,75,72,70,93,76,59,29.99,29.94,29.87,10,9,1,26,3,35,0.00,5,Rain-Thunderstorm,185
2013-7-22,82,77,71,73,71,70,94,84,74,29.91,29.88,29.84,10,8,1,16,6,22,0.00,5,Rain-Thunderstorm,222
2013-7-23,87,78,68,73,71,64,100,78,55,29.92,29.87,29.80,10,10,2,20,8,25,0.06,3,Rain-Thunderstorm,234
2013-7-24,85,75,64,68,65,61,93,74,55,29.97,29.90,29.80,10,10,10,13,5,17,0.00,2,,358
2013-7-25,82,72,61,64,61,59,93,73,49,30.07,30.02,29.96,10,10,8,8,5,,0.00,1,,353
2013-7-26,82,71,59,65,62,58,97,74,51,30.07,30.03,29.96,10,9,4,12,4,15,T,1,,275
2013-7-27,82,73,64,67,65,58,93,76,58,29.99,29.94,29.88,10,9,3,21,6,26,0.02,5,Rain,282
2013-7-28,77,66,54,58,54,48,93,66,39,30.09,30.04,29.99,10,10,10,10,3,14,0.00,0,,8
2013-7-29,80,68,56,64,60,55,100,74,48,30.18,30.15,30.09,10,10,4,7,1,9,0.00,0,,176
2013-7-30,75,69,63,72,67,61,93,79,64,30.17,30.14,30.08,10,8,2,14,4,18,0.23,6,Rain,128
2013-7-31,86,77,68,75,71,67,100,85,69,30.06,30.00,29.92,10,10,6,14,4,18,0.00,5,Rain,160